PAGY

Details ICAO PAGY (SGY)
Name SKAGWAY
Region USA (Alaska)
Timezone America/Juneau (UTC-8.0)
Plans Departing 31
Arriving 33
Stats Elevation 44 ft / 13 m (AMSL)
Location 59.460062° -135.315661°
Runways 1
Magnetic Variation 19.215° E
Sunrise 2018-05-20 12:17:27 UTC / 2018-05-20 04:17:27 Local
Sunset 2018-05-21 05:41:01 UTC / 2018-05-20 21:41:01 Local
Advertisement - Login to hide

Runways

ID Width Length Bearing (true) Bearing (mag) Surface Threshold Offset Overrun Length
02 75 ft / 23 m 3,542 ft / 1,080 m 43.94° 24.73° Asphalt 0 ft / 0 m 299 ft / 91 m
20 75 ft / 23 m 3,542 ft / 1,080 m 223.95° 204.74° Asphalt 0 ft / 0 m 299 ft / 91 m

Map

Weather


0- 5 10 15 20 25 30 35+ Temperature / ° C

Clouds and Precipitation
Forecast for 2018-05-20 18:00 UTC. Updated an hour ago

Ground ~20,000 ft ~40,000 ft Winds

METAR

PAGY 201753Z AUTO 00000KT 10SM -RA FEW019 BKN050 OVC060 11/08 A2981 RMK AO2 SLP095 P0000 60005 T01060083 10106 20094 58005 TSNO $

TAF

PAGY 201731Z 2018/2118 21005KT P6SM -RA SCT015 BKN045 OVC050 FM202100 21015G23KT P6SM -RA OVC050 FM210900 20007KT P6SM -RA OVC040 AMD LTD TO CLD VIS AND WIND

Frequencies

Recorded 135.80 MHz ASOS
Unicom 122.90 MHz CTAF
Warning: Do not use this data for real-world aviation or navigation. No guarantee of current accuracy is given.